Pagrindinis puslapis
METAR-TAF:

METAR-TAF

Oro uostai :

Mostaras, Bosnija ir Hercegovina

platuma: 43-21N, ilguma: 017-48E, Aukštis: 108 m

Dabartinis oras

Ataskaita buvo paskelbta 25 minutes, ne 09:00 UTC
Vėjas 15 kt iš Šiaurės/Šiaurės Vakarų, svyruoja nuo Vakarų/Šiaurės Vakarų ir Šiaurės
Temperatūra 19°C
Drėgmė 34%
Slėgis 1016 hPa
Matomumas 10 km arba daugiau
Mažai debesys ne aukštis 5000 ft

METAR: LQMO 080900Z 33015KT 290V360 9999 FEW050 19/03 Q1016

Laikas: 11:25 (09:25 UTC)

Prognozė

Ataskaita buvo paskelbta 4 valandos ir 25 minutes, ne 05:00 UTC
Prognozė galioja nuo 08 metu 06 UTC su 09 metu 06 UTC
Vėjas 10 kt iš Šiaurės/Šiaurės Vakarų
Matomumas 10 km arba daugiau
nėra debesų žemiau 1500 m ir nėra kamuolinių lietaus debesų
Tikimybė 40% :
Laikinai
nuo 08 metu 06 UTC su 08 metu 12 UTC
Vėjas 15 kt iš Šiaurės/Šiaurės Rytų su gūsio iki 25 kt
Tapsmas
nuo 08 metu 18 UTC su 08 metu 20 UTC
Vėjas 2 kt nuo kintamojo kryptimis

TAF: LQMO 080500Z 0806/0906 34010KT CAVOK TX22/0814Z TN16/0806Z PROB40 TEMPO 0806/0812 03015G25KT BECMG 0818/0820 VRB02KT

Orai ataskaitas ir orų prognozės (METAR, TAF).

turimą stotys yra geltonos ir raudonos taškus žemėlapyje.

Perkelti pele per norėdami pamatyti stoties vardą.

Tada spustelėkite, norėdami matyti oro stebėjimo ir prognozės.

Norėdami pakeisti žemėlapį: spustelėkite ant žalios mygtukų su juodo kryžiaus žemyn,; žalią mygtuką su brūkšneliu, jei norite nutolinti; arba žalių rodyklių gretimoms žemėlapius.


METAR-TAF: